sensor_id;sensor_type;location;lat;lon;timestamp;pressure;altitude;pressure_sealevel;temperature;humidity
78064;BME280;67429;51.596;-3.264;2023-06-24T00:01:49;100259.68;;;19.89;49.57
78064;BME280;67429;51.596;-3.264;2023-06-24T00:04:15;100261.47;;;20.18;48.31
78064;BME280;67429;51.596;-3.264;2023-06-24T00:06:40;100264.69;;;20.69;47.36
78064;BME280;67429;51.596;-3.264;2023-06-24T00:09:06;100266.74;;;20.50;47.60
78064;BME280;67429;51.596;-3.264;2023-06-24T00:11:32;100260.74;;;20.07;48.32
78064;BME280;67429;51.596;-3.264;2023-06-24T00:13:57;100264.59;;;20.46;47.33
78064;BME280;67429;51.596;-3.264;2023-06-24T00:16:23;100265.46;;;21.07;46.28
78064;BME280;67429;51.596;-3.264;2023-06-24T00:18:48;100264.85;;;21.42;46.04
78064;BME280;67429;51.596;-3.264;2023-06-24T00:21:13;100263.59;;;21.45;45.40
78064;BME280;67429;51.596;-3.264;2023-06-24T00:23:39;100264.57;;;21.37;45.54
78064;BME280;67429;51.596;-3.264;2023-06-24T00:26:04;100265.41;;;21.38;45.42
78064;BME280;67429;51.596;-3.264;2023-06-24T00:28:30;100266.43;;;20.38;47.47
78064;BME280;67429;51.596;-3.264;2023-06-24T00:30:56;100265.63;;;20.85;46.70
78064;BME280;67429;51.596;-3.264;2023-06-24T00:33:20;100263.56;;;20.21;47.91
78064;BME280;67429;51.596;-3.264;2023-06-24T00:35:46;100261.82;;;20.25;47.44
78064;BME280;67429;51.596;-3.264;2023-06-24T00:38:11;100267.56;;;20.83;46.51
78064;BME280;67429;51.596;-3.264;2023-06-24T00:40:37;100267.59;;;21.03;47.01
78064;BME280;67429;51.596;-3.264;2023-06-24T00:43:02;100266.63;;;21.20;45.82
78064;BME280;67429;51.596;-3.264;2023-06-24T00:45:28;100267.98;;;21.40;45.10
78064;BME280;67429;51.596;-3.264;2023-06-24T00:47:53;100270.45;;;21.17;45.58
78064;BME280;67429;51.596;-3.264;2023-06-24T00:50:18;100272.04;;;20.92;46.15
78064;BME280;67429;51.596;-3.264;2023-06-24T00:52:44;100270.34;;;21.10;45.80
78064;BME280;67429;51.596;-3.264;2023-06-24T00:55:10;100270.66;;;21.29;45.46
78064;BME280;67429;51.596;-3.264;2023-06-24T00:57:34;100270.02;;;21.03;46.22
78064;BME280;67429;51.596;-3.264;2023-06-24T01:00:00;100269.69;;;20.38;46.50
78064;BME280;67429;51.596;-3.264;2023-06-24T01:02:26;100269.18;;;20.81;46.27
78064;BME280;67429;51.596;-3.264;2023-06-24T01:04:51;100268.24;;;20.76;46.95
78064;BME280;67429;51.596;-3.264;2023-06-24T01:07:16;100269.42;;;21.12;46.40
78064;BME280;67429;51.596;-3.264;2023-06-24T01:09:41;100268.55;;;19.65;49.06
78064;BME280;67429;51.596;-3.264;2023-06-24T01:12:08;100267.48;;;20.27;48.23
78064;BME280;67429;51.596;-3.264;2023-06-24T01:14:34;100269.71;;;20.64;47.66
78064;BME280;67429;51.596;-3.264;2023-06-24T01:17:03;100262.51;;;19.58;50.01
78064;BME280;67429;51.596;-3.264;2023-06-24T01:19:35;100261.73;;;18.98;52.27
78064;BME280;67429;51.596;-3.264;2023-06-24T01:21:56;100262.23;;;18.67;52.49
78064;BME280;67429;51.596;-3.264;2023-06-24T01:24:28;100261.03;;;19.16;52.21
78064;BME280;67429;51.596;-3.264;2023-06-24T01:26:50;100262.25;;;18.43;54.30
78064;BME280;67429;51.596;-3.264;2023-06-24T01:29:19;100254.78;;;19.09;52.66
78064;BME280;67429;51.596;-3.264;2023-06-24T01:31:36;100256.56;;;18.80;53.85
78064;BME280;67429;51.596;-3.264;2023-06-24T01:34:01;100252.02;;;19.59;51.48
78064;BME280;67429;51.596;-3.264;2023-06-24T01:36:25;100249.39;;;19.11;52.40
78064;BME280;67429;51.596;-3.264;2023-06-24T01:38:51;100244.43;;;19.04;53.55
78064;BME280;67429;51.596;-3.264;2023-06-24T01:41:18;100249.41;;;19.58;52.17
78064;BME280;67429;51.596;-3.264;2023-06-24T01:43:41;100246.82;;;20.04;50.82
78064;BME280;67429;51.596;-3.264;2023-06-24T01:46:05;100243.61;;;19.74;50.82
78064;BME280;67429;51.596;-3.264;2023-06-24T01:48:34;100245.12;;;20.05;49.86
78064;BME280;67429;51.596;-3.264;2023-06-24T01:50:58;100247.69;;;19.87;51.02
78064;BME280;67429;51.596;-3.264;2023-06-24T01:53:20;100244.56;;;20.00;50.30
78064;BME280;67429;51.596;-3.264;2023-06-24T01:55:46;100243.96;;;18.77;53.20
78064;BME280;67429;51.596;-3.264;2023-06-24T01:58:12;100242.36;;;19.16;53.18
78064;BME280;67429;51.596;-3.264;2023-06-24T02:00:37;100241.80;;;19.77;51.23
78064;BME280;67429;51.596;-3.264;2023-06-24T02:03:04;100238.96;;;19.14;52.05
78064;BME280;67429;51.596;-3.264;2023-06-24T02:05:28;100240.16;;;19.73;51.67
78064;BME280;67429;51.596;-3.264;2023-06-24T02:07:53;100242.19;;;20.36;49.54
78064;BME280;67429;51.596;-3.264;2023-06-24T02:10:20;100243.45;;;20.68;48.86
78064;BME280;67429;51.596;-3.264;2023-06-24T02:12:46;100241.74;;;19.22;52.50
78064;BME280;67429;51.596;-3.264;2023-06-24T02:15:10;100239.32;;;19.49;52.02
78064;BME280;67429;51.596;-3.264;2023-06-24T02:17:36;100239.71;;;19.76;50.79
78064;BME280;67429;51.596;-3.264;2023-06-24T02:20:01;100239.23;;;20.68;49.36
78064;BME280;67429;51.596;-3.264;2023-06-24T02:22:25;100236.16;;;19.73;51.24
78064;BME280;67429;51.596;-3.264;2023-06-24T02:24:50;100232.03;;;19.10;52.93
78064;BME280;67429;51.596;-3.264;2023-06-24T02:27:16;100232.51;;;19.52;51.86
78064;BME280;67429;51.596;-3.264;2023-06-24T02:29:42;100231.77;;;19.35;52.64
78064;BME280;67429;51.596;-3.264;2023-06-24T02:32:08;100232.13;;;19.66;52.57
78064;BME280;67429;51.596;-3.264;2023-06-24T02:34:32;100232.98;;;20.17;51.13
78064;BME280;67429;51.596;-3.264;2023-06-24T02:36:57;100234.59;;;20.49;50.30
78064;BME280;67429;51.596;-3.264;2023-06-24T02:39:23;100232.78;;;20.74;50.64
78064;BME280;67429;51.596;-3.264;2023-06-24T02:41:48;100227.60;;;19.56;51.66
78064;BME280;67429;51.596;-3.264;2023-06-24T02:44:13;100221.36;;;19.50;52.90
78064;BME280;67429;51.596;-3.264;2023-06-24T02:46:40;100220.21;;;19.68;52.77
78064;BME280;67429;51.596;-3.264;2023-06-24T02:49:04;100224.42;;;19.83;52.46
78064;BME280;67429;51.596;-3.264;2023-06-24T02:51:30;100224.92;;;20.50;50.99
78064;BME280;67429;51.596;-3.264;2023-06-24T02:53:55;100223.72;;;19.85;52.16
78064;BME280;67429;51.596;-3.264;2023-06-24T02:56:21;100223.04;;;20.79;50.17
78064;BME280;67429;51.596;-3.264;2023-06-24T02:58:46;100218.02;;;20.25;51.56
78064;BME280;67429;51.596;-3.264;2023-06-24T03:01:11;100216.38;;;19.89;51.83
78064;BME280;67429;51.596;-3.264;2023-06-24T03:03:37;100211.91;;;19.45;52.68
78064;BME280;67429;51.596;-3.264;2023-06-24T03:06:03;100210.78;;;19.95;51.26
78064;BME280;67429;51.596;-3.264;2023-06-24T03:08:29;100207.67;;;18.49;54.17
78064;BME280;67429;51.596;-3.264;2023-06-24T03:10:54;100209.78;;;20.00;52.73
78064;BME280;67429;51.596;-3.264;2023-06-24T03:13:19;100215.45;;;20.11;51.33
78064;BME280;67429;51.596;-3.264;2023-06-24T03:15:45;100216.89;;;20.63;50.45
78064;BME280;67429;51.596;-3.264;2023-06-24T03:18:10;100212.23;;;20.04;50.83
78064;BME280;67429;51.596;-3.264;2023-06-24T03:20:36;100212.39;;;20.53;51.23
78064;BME280;67429;51.596;-3.264;2023-06-24T03:23:01;100212.13;;;20.20;51.14
78064;BME280;67429;51.596;-3.264;2023-06-24T03:25:26;100214.79;;;20.56;50.68
78064;BME280;67429;51.596;-3.264;2023-06-24T03:27:52;100209.51;;;19.93;51.90
78064;BME280;67429;51.596;-3.264;2023-06-24T03:30:17;100205.64;;;20.02;51.43
78064;BME280;67429;51.596;-3.264;2023-06-24T03:32:43;100202.54;;;19.65;52.38
78064;BME280;67429;51.596;-3.264;2023-06-24T03:35:08;100202.31;;;19.72;52.39
78064;BME280;67429;51.596;-3.264;2023-06-24T03:37:34;100202.01;;;19.00;54.34
78064;BME280;67429;51.596;-3.264;2023-06-24T03:39:59;100202.83;;;19.67;53.48
78064;BME280;67429;51.596;-3.264;2023-06-24T03:42:24;100205.35;;;19.82;52.04
78064;BME280;67429;51.596;-3.264;2023-06-24T03:44:49;100205.22;;;19.43;52.87
78064;BME280;67429;51.596;-3.264;2023-06-24T03:47:15;100207.68;;;19.60;52.97
78064;BME280;67429;51.596;-3.264;2023-06-24T03:49:40;100201.98;;;19.18;54.82
78064;BME280;67429;51.596;-3.264;2023-06-24T03:52:06;100205.35;;;19.69;53.47
78064;BME280;67429;51.596;-3.264;2023-06-24T03:54:30;100207.22;;;19.95;53.29
78064;BME280;67429;51.596;-3.264;2023-06-24T03:56:56;100202.06;;;19.50;54.16
78064;BME280;67429;51.596;-3.264;2023-06-24T03:59:21;100201.83;;;19.51;53.93
78064;BME280;67429;51.596;-3.264;2023-06-24T04:01:47;100201.67;;;18.42;56.25
78064;BME280;67429;51.596;-3.264;2023-06-24T04:04:13;100201.46;;;19.22;55.48
78064;BME280;67429;51.596;-3.264;2023-06-24T04:06:38;100200.88;;;19.22;54.65
78064;BME280;67429;51.596;-3.264;2023-06-24T04:09:04;100202.75;;;19.46;54.80
78064;BME280;67429;51.596;-3.264;2023-06-24T04:11:29;100203.74;;;18.75;55.66
78064;BME280;67429;51.596;-3.264;2023-06-24T04:13:54;100206.89;;;19.74;53.73
78064;BME280;67429;51.596;-3.264;2023-06-24T04:16:20;100206.99;;;20.10;53.07
78064;BME280;67429;51.596;-3.264;2023-06-24T04:18:46;100203.61;;;19.54;53.81
78064;BME280;67429;51.596;-3.264;2023-06-24T04:21:11;100204.35;;;20.07;52.86
78064;BME280;67429;51.596;-3.264;2023-06-24T04:23:37;100205.23;;;19.65;53.42
78064;BME280;67429;51.596;-3.264;2023-06-24T04:26:02;100202.46;;;19.66;53.74
78064;BME280;67429;51.596;-3.264;2023-06-24T04:28:28;100210.37;;;20.19;51.64
78064;BME280;67429;51.596;-3.264;2023-06-24T04:30:54;100209.67;;;19.88;52.36
78064;BME280;67429;51.596;-3.264;2023-06-24T04:33:19;100211.09;;;20.29;51.39
78064;BME280;67429;51.596;-3.264;2023-06-24T04:35:44;100212.74;;;20.12;51.87
78064;BME280;67429;51.596;-3.264;2023-06-24T04:38:10;100213.02;;;19.66;52.49
78064;BME280;67429;51.596;-3.264;2023-06-24T04:40:36;100222.91;;;20.33;51.31
78064;BME280;67429;51.596;-3.264;2023-06-24T04:43:01;100226.55;;;20.81;50.63
78064;BME280;67429;51.596;-3.264;2023-06-24T04:45:26;100222.57;;;20.29;51.52
78064;BME280;67429;51.596;-3.264;2023-06-24T04:47:52;100223.44;;;20.41;51.33
78064;BME280;67429;51.596;-3.264;2023-06-24T04:50:17;100229.00;;;20.77;50.70
78064;BME280;67429;51.596;-3.264;2023-06-24T04:52:43;100228.63;;;21.13;50.21
78064;BME280;67429;51.596;-3.264;2023-06-24T04:55:08;100227.16;;;20.61;50.46
78064;BME280;67429;51.596;-3.264;2023-06-24T04:57:33;100222.33;;;21.36;49.70
78064;BME280;67429;51.596;-3.264;2023-06-24T04:59:59;100216.79;;;20.12;51.64
78064;BME280;67429;51.596;-3.264;2023-06-24T05:02:24;100221.70;;;20.56;50.81
78064;BME280;67429;51.596;-3.264;2023-06-24T05:04:50;100220.76;;;20.83;51.09
78064;BME280;67429;51.596;-3.264;2023-06-24T05:07:15;100219.51;;;19.87;53.66
78064;BME280;67429;51.596;-3.264;2023-06-24T05:09:40;100222.18;;;20.00;54.36
78064;BME280;67429;51.596;-3.264;2023-06-24T05:12:07;100217.12;;;18.48;57.01
78064;BME280;67429;51.596;-3.264;2023-06-24T05:14:31;100226.72;;;20.38;53.83
78064;BME280;67429;51.596;-3.264;2023-06-24T05:16:57;100224.40;;;19.67;54.39
78064;BME280;67429;51.596;-3.264;2023-06-24T05:19:22;100224.39;;;19.39;54.48
78064;BME280;67429;51.596;-3.264;2023-06-24T05:21:48;100228.52;;;20.16;53.26
78064;BME280;67429;51.596;-3.264;2023-06-24T05:24:13;100230.37;;;19.78;53.23
78064;BME280;67429;51.596;-3.264;2023-06-24T05:26:38;100232.92;;;20.12;53.46
78064;BME280;67429;51.596;-3.264;2023-06-24T05:29:04;100237.63;;;20.60;52.61
78064;BME280;67429;51.596;-3.264;2023-06-24T05:31:29;100239.60;;;21.06;51.62
78064;BME280;67429;51.596;-3.264;2023-06-24T05:33:54;100238.30;;;19.84;52.97
78064;BME280;67429;51.596;-3.264;2023-06-24T05:36:20;100236.24;;;19.87;54.36
78064;BME280;67429;51.596;-3.264;2023-06-24T05:38:45;100238.88;;;19.91;53.31
78064;BME280;67429;51.596;-3.264;2023-06-24T05:41:10;100236.16;;;20.53;52.53
78064;BME280;67429;51.596;-3.264;2023-06-24T05:43:35;100235.74;;;20.00;53.16
78064;BME280;67429;51.596;-3.264;2023-06-24T05:46:01;100239.84;;;20.09;52.93
78064;BME280;67429;51.596;-3.264;2023-06-24T05:48:26;100239.00;;;19.79;54.17
78064;BME280;67429;51.596;-3.264;2023-06-24T05:50:51;100233.09;;;19.39;55.67
78064;BME280;67429;51.596;-3.264;2023-06-24T05:53:17;100238.19;;;19.32;55.71
78064;BME280;67429;51.596;-3.264;2023-06-24T05:55:42;100240.40;;;19.40;55.06
78064;BME280;67429;51.596;-3.264;2023-06-24T05:58:07;100239.01;;;19.25;55.46
78064;BME280;67429;51.596;-3.264;2023-06-24T06:00:33;100242.09;;;18.73;57.15
78064;BME280;67429;51.596;-3.264;2023-06-24T06:02:59;100241.20;;;19.37;56.22
78064;BME280;67429;51.596;-3.264;2023-06-24T06:05:24;100239.52;;;19.12;55.83
78064;BME280;67429;51.596;-3.264;2023-06-24T06:07:49;100242.53;;;19.79;54.68
78064;BME280;67429;51.596;-3.264;2023-06-24T06:10:15;100239.75;;;18.83;56.93
78064;BME280;67429;51.596;-3.264;2023-06-24T06:12:41;100238.18;;;19.04;56.49
78064;BME280;67429;51.596;-3.264;2023-06-24T06:15:07;100238.75;;;18.21;58.76
78064;BME280;67429;51.596;-3.264;2023-06-24T06:17:32;100240.58;;;18.20;59.04
78064;BME280;67429;51.596;-3.264;2023-06-24T06:19:57;100236.32;;;17.56;60.04
78064;BME280;67429;51.596;-3.264;2023-06-24T06:22:23;100235.91;;;17.88;60.08
78064;BME280;67429;51.596;-3.264;2023-06-24T06:24:48;100239.42;;;17.73;60.23
78064;BME280;67429;51.596;-3.264;2023-06-24T06:27:14;100241.43;;;18.10;60.09
78064;BME280;67429;51.596;-3.264;2023-06-24T06:29:39;100251.09;;;18.58;59.33
78064;BME280;67429;51.596;-3.264;2023-06-24T06:32:05;100250.69;;;18.01;59.39
78064;BME280;67429;51.596;-3.264;2023-06-24T06:34:31;100256.72;;;18.87;58.00
78064;BME280;67429;51.596;-3.264;2023-06-24T06:36:56;100254.36;;;19.39;56.53
78064;BME280;67429;51.596;-3.264;2023-06-24T06:39:21;100255.28;;;19.21;57.12
78064;BME280;67429;51.596;-3.264;2023-06-24T06:41:47;100254.67;;;18.21;59.16
78064;BME280;67429;51.596;-3.264;2023-06-24T06:44:12;100253.06;;;17.71;61.53
78064;BME280;67429;51.596;-3.264;2023-06-24T06:46:37;100260.62;;;17.81;61.29
78064;BME280;67429;51.596;-3.264;2023-06-24T06:49:02;100261.22;;;18.09;60.61
78064;BME280;67429;51.596;-3.264;2023-06-24T06:51:28;100267.96;;;18.03;60.56
78064;BME280;67429;51.596;-3.264;2023-06-24T06:53:53;100269.64;;;17.98;59.98
78064;BME280;67429;51.596;-3.264;2023-06-24T06:56:19;100271.89;;;17.46;61.26
78064;BME280;67429;51.596;-3.264;2023-06-24T06:58:44;100273.40;;;17.44;61.79
78064;BME280;67429;51.596;-3.264;2023-06-24T07:01:09;100284.07;;;17.66;62.03
78064;BME280;67429;51.596;-3.264;2023-06-24T07:03:35;100281.73;;;17.25;63.66
78064;BME280;67429;51.596;-3.264;2023-06-24T07:06:00;100282.98;;;17.06;64.00
78064;BME280;67429;51.596;-3.264;2023-06-24T07:08:25;100287.53;;;17.23;63.34
78064;BME280;67429;51.596;-3.264;2023-06-24T07:10:50;100284.07;;;17.43;62.17
78064;BME280;67429;51.596;-3.264;2023-06-24T07:13:16;100285.99;;;18.13;59.96
78064;BME280;67429;51.596;-3.264;2023-06-24T07:15:41;100292.49;;;17.52;62.88
78064;BME280;67429;51.596;-3.264;2023-06-24T07:18:07;100295.38;;;16.23;66.37
78064;BME280;67429;51.596;-3.264;2023-06-24T07:20:32;100293.95;;;16.76;64.47
78064;BME280;67429;51.596;-3.264;2023-06-24T07:22:58;100292.34;;;17.92;61.60
78064;BME280;67429;51.596;-3.264;2023-06-24T07:25:23;100300.56;;;18.39;59.40
78064;BME280;67429;51.596;-3.264;2023-06-24T07:27:49;100306.53;;;19.23;57.35
78064;BME280;67429;51.596;-3.264;2023-06-24T07:30:14;100311.55;;;18.93;56.57
78064;BME280;67429;51.596;-3.264;2023-06-24T07:32:39;100315.27;;;19.34;56.79
78064;BME280;67429;51.596;-3.264;2023-06-24T07:35:05;100313.70;;;19.86;54.98
78064;BME280;67429;51.596;-3.264;2023-06-24T07:37:30;100311.70;;;19.62;55.05
78064;BME280;67429;51.596;-3.264;2023-06-24T07:39:55;100311.48;;;19.60;55.32
78064;BME280;67429;51.596;-3.264;2023-06-24T07:42:20;100309.19;;;19.24;55.74
78064;BME280;67429;51.596;-3.264;2023-06-24T07:44:45;100311.57;;;19.21;56.01
78064;BME280;67429;51.596;-3.264;2023-06-24T07:47:11;100307.40;;;19.67;55.39
78064;BME280;67429;51.596;-3.264;2023-06-24T07:49:36;100308.47;;;20.01;54.41
78064;BME280;67429;51.596;-3.264;2023-06-24T07:52:02;100303.38;;;18.61;57.58
78064;BME280;67429;51.596;-3.264;2023-06-24T07:54:28;100312.59;;;18.93;58.53
78064;BME280;67429;51.596;-3.264;2023-06-24T07:56:53;100311.19;;;18.83;58.96
78064;BME280;67429;51.596;-3.264;2023-06-24T07:59:18;100307.02;;;18.35;60.45
78064;BME280;67429;51.596;-3.264;2023-06-24T08:01:44;100309.32;;;18.93;59.33
78064;BME280;67429;51.596;-3.264;2023-06-24T08:04:09;100307.58;;;18.89;58.96
78064;BME280;67429;51.596;-3.264;2023-06-24T08:06:34;100310.17;;;18.72;59.22
78064;BME280;67429;51.596;-3.264;2023-06-24T08:09:00;100303.50;;;18.09;61.04
78064;BME280;67429;51.596;-3.264;2023-06-24T08:11:26;100303.79;;;18.54;60.40
78064;BME280;67429;51.596;-3.264;2023-06-24T08:13:51;100306.83;;;18.66;60.26
78064;BME280;67429;51.596;-3.264;2023-06-24T08:16:17;100308.56;;;17.61;63.10
78064;BME280;67429;51.596;-3.264;2023-06-24T08:18:42;100310.45;;;17.82;63.03
78064;BME280;67429;51.596;-3.264;2023-06-24T08:21:08;100315.87;;;18.20;62.49
78064;BME280;67429;51.596;-3.264;2023-06-24T08:23:33;100319.29;;;17.61;62.64
78064;BME280;67429;51.596;-3.264;2023-06-24T08:25:58;100319.43;;;17.41;65.24
78064;BME280;67429;51.596;-3.264;2023-06-24T08:28:24;100317.57;;;17.57;63.77
78064;BME280;67429;51.596;-3.264;2023-06-24T08:30:50;100315.14;;;17.85;63.37
78064;BME280;67429;51.596;-3.264;2023-06-24T08:33:16;100316.83;;;17.35;65.37
78064;BME280;67429;51.596;-3.264;2023-06-24T08:35:42;100311.98;;;18.12;63.66
78064;BME280;67429;51.596;-3.264;2023-06-24T08:38:07;100323.24;;;17.74;64.51
78064;BME280;67429;51.596;-3.264;2023-06-24T08:40:32;100317.59;;;17.57;65.30
78064;BME280;67429;51.596;-3.264;2023-06-24T08:42:57;100313.75;;;18.09;63.00
78064;BME280;67429;51.596;-3.264;2023-06-24T08:45:22;100318.03;;;19.10;60.77
78064;BME280;67429;51.596;-3.264;2023-06-24T08:47:49;100313.11;;;18.98;60.68
78064;BME280;67429;51.596;-3.264;2023-06-24T08:50:14;100306.67;;;18.76;60.99
78064;BME280;67429;51.596;-3.264;2023-06-24T08:52:42;100307.50;;;17.28;64.85
78064;BME280;67429;51.596;-3.264;2023-06-24T08:55:06;100309.45;;;17.79;63.51
78064;BME280;67429;51.596;-3.264;2023-06-24T08:57:30;100305.85;;;17.95;63.26
78064;BME280;67429;51.596;-3.264;2023-06-24T08:59:56;100314.45;;;17.54;64.39
78064;BME280;67429;51.596;-3.264;2023-06-24T09:02:21;100308.36;;;17.80;64.13
78064;BME280;67429;51.596;-3.264;2023-06-24T09:04:47;100309.01;;;18.41;62.49
78064;BME280;67429;51.596;-3.264;2023-06-24T09:07:12;100305.81;;;17.64;62.94
78064;BME280;67429;51.596;-3.264;2023-06-24T09:09:43;100302.07;;;18.05;62.63
78064;BME280;67429;51.596;-3.264;2023-06-24T09:12:04;100300.20;;;18.62;61.11
78064;BME280;67429;51.596;-3.264;2023-06-24T09:14:29;100299.01;;;18.64;61.22
78064;BME280;67429;51.596;-3.264;2023-06-24T09:16:55;100300.27;;;19.36;60.07
78064;BME280;67429;51.596;-3.264;2023-06-24T09:19:21;100297.43;;;19.28;59.48
78064;BME280;67429;51.596;-3.264;2023-06-24T09:21:45;100297.50;;;19.07;59.05
78064;BME280;67429;51.596;-3.264;2023-06-24T09:24:11;100300.81;;;18.77;60.19
78064;BME280;67429;51.596;-3.264;2023-06-24T09:26:36;100297.76;;;18.41;61.10
78064;BME280;67429;51.596;-3.264;2023-06-24T09:29:03;100298.69;;;19.26;60.23
78064;BME280;67429;51.596;-3.264;2023-06-24T09:31:27;100302.83;;;19.48;58.89
78064;BME280;67429;51.596;-3.264;2023-06-24T09:33:56;100297.41;;;19.21;59.05
78064;BME280;67429;51.596;-3.264;2023-06-24T09:36:18;100297.26;;;20.88;55.48
78064;BME280;67429;51.596;-3.264;2023-06-24T09:38:43;100296.40;;;20.30;56.58
78064;BME280;67429;51.596;-3.264;2023-06-24T09:41:08;100292.44;;;20.15;55.82
78064;BME280;67429;51.596;-3.264;2023-06-24T09:43:35;100287.67;;;20.29;55.61
78064;BME280;67429;51.596;-3.264;2023-06-24T09:46:01;100285.78;;;20.06;55.88
78064;BME280;67429;51.596;-3.264;2023-06-24T09:48:25;100287.63;;;20.46;55.62
78064;BME280;67429;51.596;-3.264;2023-06-24T09:50:50;100283.64;;;20.24;56.28
78064;BME280;67429;51.596;-3.264;2023-06-24T09:53:16;100291.98;;;20.63;55.17
78064;BME280;67429;51.596;-3.264;2023-06-24T09:55:42;100291.61;;;20.98;53.45
78064;BME280;67429;51.596;-3.264;2023-06-24T09:58:07;100287.47;;;21.15;53.41
78064;BME280;67429;51.596;-3.264;2023-06-24T10:00:32;100285.42;;;21.91;52.30
78064;BME280;67429;51.596;-3.264;2023-06-24T10:02:58;100278.06;;;21.54;52.27
78064;BME280;67429;51.596;-3.264;2023-06-24T10:05:24;100272.76;;;22.20;50.72
78064;BME280;67429;51.596;-3.264;2023-06-24T10:07:49;100268.48;;;23.16;48.32
78064;BME280;67429;51.596;-3.264;2023-06-24T10:10:14;100263.15;;;23.58;48.27
78064;BME280;67429;51.596;-3.264;2023-06-24T10:12:40;100260.36;;;24.58;45.64
78064;BME280;67429;51.596;-3.264;2023-06-24T10:15:06;100260.77;;;24.52;44.70
78064;BME280;67429;51.596;-3.264;2023-06-24T10:17:31;100260.26;;;23.63;45.42
78064;BME280;67429;51.596;-3.264;2023-06-24T10:19:55;100261.87;;;23.40;45.91
78064;BME280;67429;51.596;-3.264;2023-06-24T10:22:22;100262.18;;;23.77;45.36
78064;BME280;67429;51.596;-3.264;2023-06-24T10:24:47;100262.21;;;23.79;45.51
78064;BME280;67429;51.596;-3.264;2023-06-24T10:27:15;100256.82;;;23.01;47.21
78064;BME280;67429;51.596;-3.264;2023-06-24T10:29:37;100256.38;;;23.54;47.55
78064;BME280;67429;51.596;-3.264;2023-06-24T10:32:04;100253.62;;;23.70;46.59
78064;BME280;67429;51.596;-3.264;2023-06-24T10:34:31;100259.95;;;24.00;44.80
78064;BME280;67429;51.596;-3.264;2023-06-24T10:36:54;100255.83;;;23.53;45.82
78064;BME280;67429;51.596;-3.264;2023-06-24T10:41:45;100253.42;;;23.84;45.53
78064;BME280;67429;51.596;-3.264;2023-06-24T10:44:14;100252.58;;;23.75;45.76
78064;BME280;67429;51.596;-3.264;2023-06-24T10:46:34;100253.60;;;24.93;42.90
78064;BME280;67429;51.596;-3.264;2023-06-24T10:49:00;100257.73;;;25.62;41.80
78064;BME280;67429;51.596;-3.264;2023-06-24T10:51:25;100257.73;;;25.73;40.06
78064;BME280;67429;51.596;-3.264;2023-06-24T10:53:50;100254.60;;;25.84;40.48
78064;BME280;67429;51.596;-3.264;2023-06-24T10:56:16;100251.33;;;24.95;40.97
78064;BME280;67429;51.596;-3.264;2023-06-24T10:58:40;100249.42;;;25.47;40.58
78064;BME280;67429;51.596;-3.264;2023-06-24T11:01:07;100248.63;;;24.92;41.45
78064;BME280;67429;51.596;-3.264;2023-06-24T11:03:34;100246.65;;;25.50;40.34
78064;BME280;67429;51.596;-3.264;2023-06-24T11:05:56;100238.65;;;27.26;39.16
78064;BME280;67429;51.596;-3.264;2023-06-24T11:08:22;100237.07;;;26.42;38.37
78064;BME280;67429;51.596;-3.264;2023-06-24T11:10:48;100231.60;;;26.55;38.92
78064;BME280;67429;51.596;-3.264;2023-06-24T11:13:13;100233.62;;;25.66;39.53
78064;BME280;67429;51.596;-3.264;2023-06-24T11:15:38;100228.55;;;28.07;37.34
78064;BME280;67429;51.596;-3.264;2023-06-24T11:18:03;100221.44;;;27.37;37.84
78064;BME280;67429;51.596;-3.264;2023-06-24T11:20:28;100223.59;;;26.84;38.20
78064;BME280;67429;51.596;-3.264;2023-06-24T11:22:54;100220.80;;;27.02;36.95
78064;BME280;67429;51.596;-3.264;2023-06-24T11:25:20;100218.84;;;27.88;34.87
78064;BME280;67429;51.596;-3.264;2023-06-24T11:27:45;100223.97;;;27.35;36.18
78064;BME280;67429;51.596;-3.264;2023-06-24T11:30:11;100222.72;;;26.57;36.75
78064;BME280;67429;51.596;-3.264;2023-06-24T11:32:36;100225.37;;;27.19;36.09
78064;BME280;67429;51.596;-3.264;2023-06-24T11:35:00;100221.62;;;27.07;35.69
78064;BME280;67429;51.596;-3.264;2023-06-24T11:37:31;100218.63;;;27.02;36.09
78064;BME280;67429;51.596;-3.264;2023-06-24T11:40:00;100218.97;;;28.23;35.05
78064;BME280;67429;51.596;-3.264;2023-06-24T11:42:17;100218.91;;;28.16;34.67
78064;BME280;67429;51.596;-3.264;2023-06-24T11:44:42;100215.14;;;28.36;33.72
78064;BME280;67429;51.596;-3.264;2023-06-24T11:47:08;100212.81;;;28.25;33.19
78064;BME280;67429;51.596;-3.264;2023-06-24T11:49:32;100210.41;;;28.93;32.49
78064;BME280;67429;51.596;-3.264;2023-06-24T11:51:57;100207.16;;;29.12;32.60
78064;BME280;67429;51.596;-3.264;2023-06-24T11:54:23;100211.73;;;30.28;30.85
78064;BME280;67429;51.596;-3.264;2023-06-24T11:56:50;100210.71;;;30.09;31.52
78064;BME280;67429;51.596;-3.264;2023-06-24T11:59:18;100210.17;;;29.40;31.69
78064;BME280;67429;51.596;-3.264;2023-06-24T12:01:39;100209.13;;;28.98;32.64
78064;BME280;67429;51.596;-3.264;2023-06-24T12:04:10;100205.26;;;28.69;32.24
78064;BME280;67429;51.596;-3.264;2023-06-24T12:06:29;100206.81;;;29.52;31.56
78064;BME280;67429;51.596;-3.264;2023-06-24T12:08:55;100206.03;;;29.27;32.03
78064;BME280;67429;51.596;-3.264;2023-06-24T12:11:20;100209.66;;;28.58;33.29
78064;BME280;67429;51.596;-3.264;2023-06-24T12:13:45;100207.98;;;28.48;33.02
78064;BME280;67429;51.596;-3.264;2023-06-24T12:16:10;100208.59;;;28.73;32.62
78064;BME280;67429;51.596;-3.264;2023-06-24T12:18:36;100207.90;;;27.80;33.39
78064;BME280;67429;51.596;-3.264;2023-06-24T12:21:01;100206.47;;;27.60;34.81
78064;BME280;67429;51.596;-3.264;2023-06-24T12:23:26;100204.15;;;27.09;36.37
78064;BME280;67429;51.596;-3.264;2023-06-24T12:25:52;100203.67;;;27.31;35.52
78064;BME280;67429;51.596;-3.264;2023-06-24T12:28:17;100206.59;;;27.90;34.94
78064;BME280;67429;51.596;-3.264;2023-06-24T12:30:43;100204.61;;;27.83;35.26
78064;BME280;67429;51.596;-3.264;2023-06-24T12:33:08;100202.11;;;27.55;34.94